Time,TemperatureF,DewpointF,PressureIn,WindDirection,WindDirectionDegrees,WindSpeedMPH,WindSpeedGustMPH,Humidity,HourlyPrecipIn,Conditions,Clouds,dailyrainin,SoftwareType,DateUTC
2013-04-05 00:00:00,42.0,34.0,30.14,South,180,10.5,10.5,73,0.00,,,0.00,VWS V13.00,2013-04-05 04:00:00,
2013-04-05 00:05:00,42.0,34.0,30.14,SSE,158,4.9,10.5,73,0.00,,,0.00,VWS V13.00,2013-04-05 04:05:00,
2013-04-05 00:10:00,42.0,34.3,30.14,South,180,10.5,12.3,74,0.00,,,0.00,VWS V13.00,2013-04-05 04:10:00,
2013-04-05 00:15:00,42.0,34.7,30.14,SSE,158,20.1,20.1,75,0.00,,,0.00,VWS V13.00,2013-04-05 04:15:00,
2013-04-05 00:20:00,41.9,34.9,30.14,SE,135,9.8,20.1,76,0.00,,,0.00,VWS V13.00,2013-04-05 04:20:00,
2013-04-05 00:25:00,41.3,35.0,30.14,SE,135,11.4,17.0,78,0.00,,,0.00,VWS V13.00,2013-04-05 04:25:00,
2013-04-05 00:30:00,40.8,34.8,30.13,SE,135,10.0,18.3,79,0.00,,,0.00,VWS V13.00,2013-04-05 04:30:00,
2013-04-05 00:35:00,40.2,34.5,30.13,SSW,202,14.3,18.3,80,0.00,,,0.00,VWS V13.00,2013-04-05 04:35:00,
2013-04-05 00:40:00,39.9,34.5,30.13,SE,135,10.0,18.3,81,0.00,,,0.00,VWS V13.00,2013-04-05 04:40:00,
2013-04-05 00:45:00,39.9,34.9,30.13,SSE,158,8.2,10.0,82,0.00,,,0.00,VWS V13.00,2013-04-05 04:45:00,
2013-04-05 00:50:00,39.7,35.0,30.12,South,180,9.1,10.0,83,0.02,,,0.02,VWS V13.00,2013-04-05 04:50:00,
2013-04-05 00:55:00,39.7,35.0,30.12,SE,135,6.9,10.5,83,0.02,,,0.02,VWS V13.00,2013-04-05 04:55:00,
2013-04-05 01:00:00,39.7,35.0,30.11,SSW,202,8.9,10.5,83,0.02,,,0.02,VWS V13.00,2013-04-05 05:00:00,
2013-04-05 01:05:00,39.7,35.0,30.11,South,180,12.7,12.7,83,0.02,,,0.02,VWS V13.00,2013-04-05 05:05:00,
2013-04-05 01:10:00,39.5,34.8,30.11,South,180,13.1,13.1,83,0.02,,,0.02,VWS V13.00,2013-04-05 05:10:00,
2013-04-05 01:15:00,39.5,34.8,30.11,South,180,7.1,13.1,83,0.04,,,0.04,VWS V13.00,2013-04-05 05:15:00,
2013-04-05 01:20:00,39.5,34.8,30.11,South,180,6.7,13.1,83,0.04,,,0.04,VWS V13.00,2013-04-05 05:20:00,
2013-04-05 01:25:00,39.5,34.8,30.10,SSE,158,6.0,6.7,83,0.04,,,0.04,VWS V13.00,2013-04-05 05:25:00,
2013-04-05 01:30:00,39.5,34.8,30.10,South,180,8.5,8.5,83,0.04,,,0.04,VWS V13.00,2013-04-05 05:30:00,
2013-04-05 01:35:00,39.7,35.0,30.09,SSE,158,7.6,8.5,83,0.04,,,0.04,VWS V13.00,2013-04-05 05:35:00,
2013-04-05 01:41:00,39.7,35.0,30.09,South,180,7.3,7.3,83,0.06,,,0.06,VWS V13.00,2013-04-05 05:41:00,
2013-04-05 01:46:00,39.5,34.8,30.08,SSE,158,6.0,7.3,83,0.04,,,0.06,VWS V13.00,2013-04-05 05:46:00,
2013-04-05 01:51:00,39.7,35.0,30.08,SE,135,5.8,7.6,83,0.04,,,0.06,VWS V13.00,2013-04-05 05:51:00,
2013-04-05 01:56:00,39.7,35.0,30.08,SE,135,2.4,7.6,83,0.04,,,0.06,VWS V13.00,2013-04-05 05:56:00,
2013-04-05 02:01:00,39.7,35.0,30.08,South,180,7.1,7.1,83,0.04,,,0.06,VWS V13.00,2013-04-05 06:01:00,
2013-04-05 02:06:00,39.7,35.0,30.08,SSE,158,4.0,7.1,83,0.06,,,0.08,VWS V13.00,2013-04-05 06:06:00,
2013-04-05 02:11:00,39.7,35.3,30.07,SSE,158,5.8,7.3,84,0.06,,,0.08,VWS V13.00,2013-04-05 06:11:00,
2013-04-05 02:16:00,39.7,35.0,30.07,SSE,158,4.0,7.3,83,0.04,,,0.08,VWS V13.00,2013-04-05 06:16:00,
2013-04-05 02:21:00,39.7,35.3,30.07,SSE,158,5.5,5.5,84,0.04,,,0.08,VWS V13.00,2013-04-05 06:21:00,
2013-04-05 02:27:00,39.7,35.0,30.06,SSW,202,2.9,5.5,83,0.06,,,0.10,VWS V13.00,2013-04-05 06:27:00,
2013-04-05 02:32:00,39.5,34.8,30.05,SSE,158,2.6,5.5,83,0.06,,,0.10,VWS V13.00,2013-04-05 06:32:00,
2013-04-05 02:37:00,39.5,35.1,30.05,SSE,158,3.1,5.5,84,0.04,,,0.10,VWS V13.00,2013-04-05 06:37:00,
2013-04-05 02:42:00,39.5,35.1,30.05,East,90,2.2,3.1,84,0.04,,,0.10,VWS V13.00,2013-04-05 06:42:00,
2013-04-05 02:47:00,39.5,35.1,30.05,South,180,4.2,4.2,84,0.04,,,0.10,VWS V13.00,2013-04-05 06:47:00,
2013-04-05 02:52:00,39.5,34.8,30.04,ESE,112,0.0,4.2,83,0.06,,,0.12,VWS V13.00,2013-04-05 06:52:00,
2013-04-05 02:57:00,39.5,35.1,30.04,South,180,0.0,4.2,84,0.06,,,0.12,VWS V13.00,2013-04-05 06:57:00,
2013-04-05 03:02:00,39.5,34.8,30.03,South,180,0.0,0.0,83,0.06,,,0.12,VWS V13.00,2013-04-05 07:02:00,
2013-04-05 03:07:00,39.5,34.8,30.03,NNE,22,0.0,0.0,83,0.06,,,0.14,VWS V13.00,2013-04-05 07:07:00,
2013-04-05 03:12:00,39.7,35.0,30.02,NW,315,0.0,0.0,83,0.06,,,0.14,VWS V13.00,2013-04-05 07:12:00,
2013-04-05 03:17:00,39.9,35.2,30.01,North,0,0.0,0.0,83,0.06,,,0.14,VWS V13.00,2013-04-05 07:17:00,
2013-04-05 03:22:00,40.1,35.4,30.01,NNW,338,3.8,3.8,83,0.04,,,0.14,VWS V13.00,2013-04-05 07:22:00,
2013-04-05 03:27:00,40.2,35.5,30.00,North,0,1.7,3.8,83,0.04,,,0.14,VWS V13.00,2013-04-05 07:27:00,
2013-04-05 03:32:00,40.2,35.8,30.00,NNW,338,4.6,4.6,84,0.04,,,0.14,VWS V13.00,2013-04-05 07:32:00,
2013-04-05 03:38:00,40.4,36.0,30.00,NNW,338,4.6,4.6,84,0.04,,,0.14,VWS V13.00,2013-04-05 07:38:00,
2013-04-05 03:43:00,40.4,36.0,30.00,NNW,338,2.6,4.0,84,0.06,,,0.17,VWS V13.00,2013-04-05 07:43:00,
2013-04-05 03:48:00,40.4,36.0,30.00,NW,315,0.0,4.0,84,0.04,,,0.17,VWS V13.00,2013-04-05 07:48:00,
2013-04-05 03:53:00,40.2,35.8,29.99,NNW,338,2.0,4.0,84,0.04,,,0.17,VWS V13.00,2013-04-05 07:53:00,
2013-04-05 03:58:00,40.2,35.8,29.99,SW,225,0.0,4.0,84,0.04,,,0.17,VWS V13.00,2013-04-05 07:58:00,
2013-04-05 04:03:00,40.2,35.8,29.98,ESE,112,0.0,0.0,84,0.04,,,0.17,VWS V13.00,2013-04-05 08:03:00,
2013-04-05 04:08:00,39.9,35.8,29.97,SSW,202,0.0,3.8,85,0.02,,,0.17,VWS V13.00,2013-04-05 08:08:00,
2013-04-05 04:13:00,39.9,35.8,29.98,ESE,112,0.0,3.8,85,0.02,,,0.17,VWS V13.00,2013-04-05 08:13:00,
2013-04-05 04:18:00,39.9,35.8,29.98,NNW,338,1.1,3.8,85,0.04,,,0.19,VWS V13.00,2013-04-05 08:18:00,
2013-04-05 04:23:00,39.9,35.8,29.98,NW,315,2.9,2.9,85,0.06,,,0.20,VWS V13.00,2013-04-05 08:23:00,
2013-04-05 04:28:00,39.9,35.8,29.98,North,0,5.3,5.3,85,0.06,,,0.20,VWS V13.00,2013-04-05 08:28:00,
2013-04-05 04:34:00,39.9,35.8,29.98,North,0,2.4,5.3,85,0.06,,,0.20,VWS V13.00,2013-04-05 08:34:00,
2013-04-05 04:39:00,39.9,36.1,29.98,WNW,292,0.0,6.2,86,0.04,,,0.20,VWS V13.00,2013-04-05 08:39:00,
2013-04-05 04:44:00,39.7,35.9,29.98,NNW,338,7.6,7.6,86,0.06,,,0.22,VWS V13.00,2013-04-05 08:44:00,
2013-04-05 04:49:00,39.7,35.9,29.98,NE,45,1.5,7.6,86,0.06,,,0.22,VWS V13.00,2013-04-05 08:49:00,
2013-04-05 04:54:00,39.7,35.9,29.99,NNW,338,3.5,7.6,86,0.06,,,0.22,VWS V13.00,2013-04-05 08:54:00,
2013-04-05 05:00:00,39.5,35.7,29.98,NNW,338,7.6,7.6,86,0.08,,,0.24,VWS V13.00,2013-04-05 09:00:00,
2013-04-05 05:05:00,39.5,35.7,29.98,NNW,338,7.6,7.6,86,0.08,,,0.24,VWS V13.00,2013-04-05 09:05:00,
2013-04-05 05:10:00,39.5,35.7,29.98,North,0,5.8,7.6,86,0.10,,,0.27,VWS V13.00,2013-04-05 09:10:00,
2013-04-05 05:15:00,39.5,35.7,29.99,SW,225,0.0,7.6,86,0.10,,,0.29,VWS V13.00,2013-04-05 09:15:00,
2013-04-05 05:20:00,39.5,35.7,29.98,West,270,0.0,7.6,86,0.10,,,0.29,VWS V13.00,2013-04-05 09:20:00,
2013-04-05 05:25:00,39.3,35.8,29.96,NNE,22,0.8,4.0,87,0.12,,,0.33,VWS V13.00,2013-04-05 09:25:00,
2013-04-05 05:30:00,39.3,35.8,29.96,NNE,22,2.6,4.0,87,0.14,,,0.35,VWS V13.00,2013-04-05 09:30:00,
2013-04-05 05:35:00,39.3,35.8,29.97,North,0,1.7,4.0,87,0.16,,,0.37,VWS V13.00,2013-04-05 09:35:00,
2013-04-05 05:40:00,39.3,35.8,29.97,WNW,292,0.0,4.0,87,0.16,,,0.39,VWS V13.00,2013-04-05 09:40:00,
2013-04-05 05:45:00,39.3,35.8,29.96,WNW,292,4.9,4.9,87,0.16,,,0.39,VWS V13.00,2013-04-05 09:45:00,
2013-04-05 05:50:00,39.3,35.8,29.97,SSE,158,0.0,4.9,87,0.18,,,0.41,VWS V13.00,2013-04-05 09:50:00,
2013-04-05 05:56:00,39.3,35.8,29.95,SE,135,1.3,4.9,87,0.18,,,0.41,VWS V13.00,2013-04-05 09:56:00,
2013-04-05 06:01:00,39.3,35.8,29.95,West,270,2.0,2.0,87,0.18,,,0.43,VWS V13.00,2013-04-05 10:01:00,
2013-04-05 06:06:00,39.3,36.0,29.95,WNW,292,0.8,2.0,88,0.18,,,0.45,VWS V13.00,2013-04-05 10:06:00,
2013-04-05 06:11:00,39.3,36.0,29.95,WSW,248,5.5,5.5,88,0.18,,,0.45,VWS V13.00,2013-04-05 10:11:00,
2013-04-05 06:16:00,39.3,36.0,29.95,NNE,22,3.5,5.5,88,0.18,,,0.47,VWS V13.00,2013-04-05 10:16:00,
2013-04-05 06:21:00,39.3,36.0,29.94,South,180,0.0,0.0,88,0.14,,,0.47,VWS V13.00,2013-04-05 10:21:00,
2013-04-05 06:26:00,39.3,36.0,29.94,NW,315,4.4,4.4,88,0.14,,,0.47,VWS V13.00,2013-04-05 10:26:00,
2013-04-05 06:32:00,39.5,36.2,29.95,North,0,5.1,6.2,88,0.12,,,0.49,VWS V13.00,2013-04-05 10:32:00,
2013-04-05 06:37:00,39.5,36.2,29.94,NNE,22,5.1,6.2,88,0.10,,,0.49,VWS V13.00,2013-04-05 10:37:00,
2013-04-05 06:42:00,39.7,36.4,29.94,NNE,22,4.4,9.8,88,0.12,,,0.51,VWS V13.00,2013-04-05 10:42:00,
2013-04-05 06:47:00,39.7,36.4,29.95,North,0,6.7,9.8,88,0.10,,,0.51,VWS V13.00,2013-04-05 10:47:00,
2013-04-05 06:52:00,39.7,36.4,29.94,North,0,6.2,9.8,88,0.10,,,0.51,VWS V13.00,2013-04-05 10:52:00,
2013-04-05 06:57:00,39.7,36.7,29.94,NW,315,3.1,9.8,89,0.10,,,0.53,VWS V13.00,2013-04-05 10:57:00,
2013-04-05 07:02:00,39.7,36.7,29.93,NW,315,3.8,3.8,89,0.10,,,0.53,VWS V13.00,2013-04-05 11:02:00,
2013-04-05 07:07:00,39.7,36.7,29.92,West,270,0.0,3.8,89,0.10,,,0.55,VWS V13.00,2013-04-05 11:07:00,
2013-04-05 07:12:00,39.5,36.5,29.91,WNW,292,0.8,4.6,89,0.08,,,0.55,VWS V13.00,2013-04-05 11:12:00,
2013-04-05 07:17:00,39.5,36.5,29.92,WSW,248,2.9,4.6,89,0.10,,,0.57,VWS V13.00,2013-04-05 11:17:00,
2013-04-05 07:22:00,39.5,36.5,29.92,East,90,2.0,2.0,89,0.12,,,0.59,VWS V13.00,2013-04-05 11:22:00,
2013-04-05 07:27:00,39.5,36.5,29.93,NNE,22,0.0,6.4,89,0.12,,,0.59,VWS V13.00,2013-04-05 11:27:00,
2013-04-05 07:32:00,39.5,36.5,29.94,North,0,3.1,6.4,89,0.10,,,0.59,VWS V13.00,2013-04-05 11:32:00,
2013-04-05 07:37:00,39.7,36.7,29.94,NNE,22,0.0,6.4,89,0.08,,,0.59,VWS V13.00,2013-04-05 11:37:00,
2013-04-05 07:42:00,39.7,36.7,29.94,WSW,248,0.0,3.5,89,0.10,,,0.61,VWS V13.00,2013-04-05 11:42:00,
2013-04-05 07:48:00,39.7,36.7,29.94,West,270,0.0,3.5,89,0.10,,,0.61,VWS V13.00,2013-04-05 11:48:00,
2013-04-05 07:53:00,39.9,36.9,29.93,WNW,292,0.0,3.5,89,0.10,,,0.61,VWS V13.00,2013-04-05 11:53:00,
2013-04-05 07:58:00,39.9,36.9,29.93,NNW,338,3.8,3.8,89,0.10,,,0.63,VWS V13.00,2013-04-05 11:58:00,
2013-04-05 08:03:00,39.9,36.9,29.93,North,0,0.0,2.4,89,0.10,,,0.63,VWS V13.00,2013-04-05 12:03:00,
2013-04-05 08:08:00,39.9,36.9,29.93,SSW,202,1.7,2.4,89,0.10,,,0.65,VWS V13.00,2013-04-05 12:08:00,
2013-04-05 08:13:00,39.9,36.9,29.93,NNE,22,2.6,2.9,89,0.08,,,0.65,VWS V13.00,2013-04-05 12:13:00,
2013-04-05 08:18:00,40.1,37.1,29.92,WSW,248,0.0,2.9,89,0.10,,,0.67,VWS V13.00,2013-04-05 12:18:00,
2013-04-05 08:23:00,40.1,37.1,29.91,SW,225,4.4,4.4,89,0.12,,,0.71,VWS V13.00,2013-04-05 12:23:00,
2013-04-05 08:28:00,40.1,37.4,29.90,NNE,22,4.9,4.9,90,0.12,,,0.71,VWS V13.00,2013-04-05 12:28:00,
2013-04-05 08:33:00,40.2,37.5,29.90,East,90,3.3,4.9,90,0.14,,,0.74,VWS V13.00,2013-04-05 12:33:00,
2013-04-05 08:38:00,40.2,37.5,29.90,WSW,248,0.0,4.9,90,0.12,,,0.74,VWS V13.00,2013-04-05 12:38:00,
2013-04-05 08:43:00,40.2,37.5,29.90,SE,135,0.0,0.0,90,0.12,,,0.74,VWS V13.00,2013-04-05 12:43:00,
2013-04-05 08:48:00,40.4,37.7,29.90,NNE,22,0.0,1.3,90,0.12,,,0.74,VWS V13.00,2013-04-05 12:48:00,
2013-04-05 08:53:00,40.8,38.1,29.90,NNE,22,3.5,3.5,90,0.12,,,0.74,VWS V13.00,2013-04-05 12:53:00,
2013-04-05 08:58:00,40.8,38.1,29.90,North,0,0.0,3.5,90,0.10,,,0.74,VWS V13.00,2013-04-05 12:58:00,
2013-04-05 09:03:00,41.1,38.4,29.89,NW,315,0.0,0.0,90,0.10,,,0.74,VWS V13.00,2013-04-05 13:03:00,
2013-04-05 09:08:00,41.3,38.6,29.89,South,180,0.0,3.5,90,0.08,,,0.74,VWS V13.00,2013-04-05 13:08:00,
2013-04-05 09:13:00,41.5,38.8,29.88,West,270,0.0,3.5,90,0.06,,,0.74,VWS V13.00,2013-04-05 13:13:00,
2013-04-05 09:19:00,41.7,39.0,29.89,East,90,0.0,3.5,90,0.04,,,0.74,VWS V13.00,2013-04-05 13:19:00,
2013-04-05 09:24:00,41.7,39.0,29.88,North,0,0.0,2.6,90,0.02,,,0.74,VWS V13.00,2013-04-05 13:24:00,
2013-04-05 09:29:00,42.0,39.3,29.88,NE,45,0.0,2.6,90,0.00,,,0.74,VWS V13.00,2013-04-05 13:29:00,
2013-04-05 09:34:00,42.0,39.3,29.88,WNW,292,0.0,2.6,90,0.00,,,0.74,VWS V13.00,2013-04-05 13:34:00,
2013-04-05 09:39:00,42.4,39.7,29.88,NNE,22,1.7,2.6,90,0.00,,,0.74,VWS V13.00,2013-04-05 13:39:00,
2013-04-05 09:44:00,42.6,39.9,29.87,North,0,7.6,7.6,90,0.00,,,0.74,VWS V13.00,2013-04-05 13:44:00,
2013-04-05 09:49:00,42.8,40.1,29.87,NNW,338,2.6,7.6,90,0.00,,,0.74,VWS V13.00,2013-04-05 13:49:00,
2013-04-05 09:54:00,42.8,40.1,29.87,ESE,112,3.1,7.6,90,0.00,,,0.74,VWS V13.00,2013-04-05 13:54:00,
2013-04-05 09:59:00,42.9,40.2,29.88,North,0,5.1,7.6,90,0.00,,,0.74,VWS V13.00,2013-04-05 13:59:00,
2013-04-05 10:04:00,43.3,40.6,29.88,North,0,9.6,9.6,90,0.00,,,0.74,VWS V13.00,2013-04-05 14:04:00,
2013-04-05 10:09:00,43.7,41.0,29.87,NNE,22,6.7,9.6,90,0.00,,,0.74,VWS V13.00,2013-04-05 14:09:00,
2013-04-05 10:14:00,43.8,41.1,29.87,NNW,338,4.4,9.6,90,0.00,,,0.74,VWS V13.00,2013-04-05 14:14:00,
2013-04-05 10:19:00,44.2,41.5,29.88,North,0,5.8,9.6,90,0.00,,,0.74,VWS V13.00,2013-04-05 14:19:00,
2013-04-05 10:24:00,46.2,43.7,29.88,NW,315,4.0,6.7,91,0.00,,,0.74,VWS V13.00,2013-04-05 14:24:00,
2013-04-05 10:29:00,48.3,45.8,29.87,NW,315,6.7,6.7,91,0.00,,,0.74,VWS V13.00,2013-04-05 14:29:00,
2013-04-05 10:35:00,49.2,46.7,29.87,NNW,338,6.7,6.7,91,0.00,,,0.74,VWS V13.00,2013-04-05 14:35:00,
2013-04-05 10:40:00,49.8,47.0,29.88,NW,315,4.9,6.7,90,0.00,,,0.74,VWS V13.00,2013-04-05 14:40:00,
2013-04-05 10:45:00,50.1,47.0,29.87,NW,315,0.0,5.8,89,0.00,,,0.74,VWS V13.00,2013-04-05 14:45:00,
2013-04-05 10:50:00,50.7,47.3,29.88,WSW,248,1.7,5.8,88,0.00,,,0.74,VWS V13.00,2013-04-05 14:50:00,
2013-04-05 10:55:00,51.0,47.0,29.87,NNE,22,4.0,10.7,86,0.00,,,0.74,VWS V13.00,2013-04-05 14:55:00,
2013-04-05 11:00:00,51.6,47.2,29.86,North,0,7.6,10.7,85,0.00,,,0.74,VWS V13.00,2013-04-05 15:00:00,
2013-04-05 11:05:00,52.1,46.8,29.86,WNW,292,2.2,7.6,82,0.00,,,0.74,VWS V13.00,2013-04-05 15:05:00,
2013-04-05 11:10:00,51.9,45.9,29.85,North,0,2.2,7.8,80,0.00,,,0.74,VWS V13.00,2013-04-05 15:10:00,
2013-04-05 11:15:00,52.7,46.4,29.85,NNW,338,8.9,8.9,79,0.00,,,0.74,VWS V13.00,2013-04-05 15:15:00,
2013-04-05 11:20:00,53.4,46.4,29.85,NNW,338,8.9,8.9,77,0.00,,,0.74,VWS V13.00,2013-04-05 15:20:00,
2013-04-05 11:25:00,55.0,46.9,29.84,North,0,6.2,9.3,74,0.00,,,0.74,VWS V13.00,2013-04-05 15:25:00,
2013-04-05 11:30:00,57.0,48.1,29.85,West,270,2.0,9.3,72,0.00,,,0.74,VWS V13.00,2013-04-05 15:30:00,
2013-04-05 11:35:00,58.1,48.0,29.84,NW,315,5.8,9.3,69,0.00,,,0.74,VWS V13.00,2013-04-05 15:35:00,
2013-04-05 11:40:00,58.6,47.7,29.84,WNW,292,4.0,4.0,67,0.00,,,0.74,VWS V13.00,2013-04-05 15:40:00,
2013-04-05 11:45:00,58.8,47.5,29.84,NW,315,2.0,7.6,66,0.00,,,0.74,VWS V13.00,2013-04-05 15:45:00,
2013-04-05 11:50:00,59.3,47.5,29.84,NNW,338,8.7,10.9,65,0.00,,,0.74,VWS V13.00,2013-04-05 15:50:00,
2013-04-05 11:55:00,60.4,47.8,29.84,NNW,338,1.7,10.9,63,0.00,,,0.74,VWS V13.00,2013-04-05 15:55:00,
2013-04-05 12:00:00,61.5,47.5,29.83,NNW,338,8.9,8.9,60,0.00,,,0.74,VWS V13.00,2013-04-05 16:00:00,
2013-04-05 12:05:00,62.0,46.6,29.83,NNW,338,12.5,12.5,57,0.00,,,0.74,VWS V13.00,2013-04-05 16:05:00,
2013-04-05 12:10:00,62.2,46.3,29.83,NW,315,0.0,12.5,56,0.00,,,0.74,VWS V13.00,2013-04-05 16:10:00,
2013-04-05 12:15:00,62.2,45.4,29.83,NNW,338,2.4,12.5,54,0.00,,,0.74,VWS V13.00,2013-04-05 16:15:00,
2013-04-05 12:20:00,62.7,45.3,29.83,WNW,292,2.6,2.6,53,0.00,,,0.74,VWS V13.00,2013-04-05 16:20:00,
2013-04-05 12:26:00,63.1,45.7,29.83,NNW,338,4.6,4.6,53,0.00,,,0.74,VWS V13.00,2013-04-05 16:26:00,
2013-04-05 12:31:00,64.0,45.5,29.83,North,0,2.0,4.6,51,0.00,,,0.74,VWS V13.00,2013-04-05 16:31:00,
2013-04-05 12:36:00,64.9,45.3,29.83,WNW,292,2.2,5.3,49,0.00,,,0.74,VWS V13.00,2013-04-05 16:36:00,
2013-04-05 12:41:00,65.4,45.8,29.83,NNW,338,6.0,6.0,49,0.00,,,0.74,VWS V13.00,2013-04-05 16:41:00,
2013-04-05 12:46:00,66.0,45.2,29.83,WNW,292,0.0,6.7,47,0.00,,,0.74,VWS V13.00,2013-04-05 16:46:00,
2013-04-05 12:51:00,66.3,44.9,29.83,NNW,338,5.1,6.7,46,0.00,,,0.74,VWS V13.00,2013-04-05 16:51:00,
2013-04-05 12:57:00,67.6,44.9,29.84,North,0,9.6,9.6,44,0.00,,,0.74,VWS V13.00,2013-04-05 16:57:00,
2013-04-05 13:02:00,67.8,44.5,29.83,NNW,338,6.7,6.7,43,0.00,,,0.74,VWS V13.00,2013-04-05 17:02:00,
2013-04-05 13:07:00,67.6,44.3,29.82,NW,315,5.5,6.7,43,0.00,,,0.74,VWS V13.00,2013-04-05 17:07:00,
2013-04-05 13:12:00,66.9,42.5,29.82,North,0,8.7,8.7,41,0.00,,,0.74,VWS V13.00,2013-04-05 17:12:00,
2013-04-05 13:17:00,66.2,41.2,29.81,NNW,338,6.4,8.9,40,0.00,,,0.74,VWS V13.00,2013-04-05 17:17:00,
2013-04-05 13:22:00,65.8,41.5,29.80,NW,315,9.1,9.1,41,0.00,,,0.74,VWS V13.00,2013-04-05 17:22:00,
2013-04-05 13:27:00,65.3,41.0,29.80,NNW,338,4.2,9.1,41,0.00,,,0.74,VWS V13.00,2013-04-05 17:27:00,
2013-04-05 13:32:00,65.4,40.5,29.80,SW,225,4.4,9.1,40,0.00,,,0.74,VWS V13.00,2013-04-05 17:32:00,
2013-04-05 13:37:00,65.8,41.5,29.80,NW,315,3.1,9.1,41,0.00,,,0.74,VWS V13.00,2013-04-05 17:37:00,
2013-04-05 13:42:00,67.1,42.6,29.80,NW,315,3.5,3.5,41,0.00,,,0.74,VWS V13.00,2013-04-05 17:42:00,
2013-04-05 13:47:00,67.1,41.3,29.80,NNE,22,6.7,9.3,39,0.00,,,0.74,VWS V13.00,2013-04-05 17:47:00,
2013-04-05 13:52:00,67.1,40.7,29.79,NNW,338,5.3,9.3,38,0.00,,,0.74,VWS V13.00,2013-04-05 17:52:00,
2013-04-05 13:57:00,67.2,39.4,29.79,North,0,9.1,9.3,36,0.00,,,0.74,VWS V13.00,2013-04-05 17:57:00,
2013-04-05 14:03:00,66.9,38.4,29.79,North,0,7.8,7.8,35,0.00,,,0.74,VWS V13.00,2013-04-05 18:03:00,
2013-04-05 14:08:00,66.7,38.9,29.79,NNW,338,7.6,9.3,36,0.00,,,0.74,VWS V13.00,2013-04-05 18:08:00,
2013-04-05 14:13:00,66.7,38.2,29.79,NW,315,0.0,9.3,35,0.00,,,0.74,VWS V13.00,2013-04-05 18:13:00,
2013-04-05 14:18:00,67.4,38.1,29.79,NNW,338,2.6,10.2,34,0.00,,,0.74,VWS V13.00,2013-04-05 18:18:00,
2013-04-05 14:23:00,67.2,37.9,29.79,NW,315,7.6,7.6,34,0.00,,,0.74,VWS V13.00,2013-04-05 18:23:00,
2013-04-05 14:28:00,66.7,35.9,29.78,North,0,4.0,7.6,32,0.00,,,0.74,VWS V13.00,2013-04-05 18:28:00,
2013-04-05 14:33:00,66.3,36.4,29.79,NW,315,6.9,9.6,33,0.00,,,0.74,VWS V13.00,2013-04-05 18:33:00,
2013-04-05 14:38:00,66.3,36.4,29.79,NNW,338,3.5,9.6,33,0.00,,,0.74,VWS V13.00,2013-04-05 18:38:00,
2013-04-05 14:43:00,66.0,36.1,29.78,NW,315,3.1,10.9,33,0.00,,,0.74,VWS V13.00,2013-04-05 18:43:00,
2013-04-05 14:48:00,66.7,36.7,29.78,NNE,22,6.2,10.9,33,0.00,,,0.74,VWS V13.00,2013-04-05 18:48:00,
2013-04-05 14:53:00,66.5,37.3,29.78,SE,135,3.1,10.9,34,0.00,,,0.74,VWS V13.00,2013-04-05 18:53:00,
2013-04-05 14:58:00,64.2,40.7,29.78,SE,135,4.6,10.9,42,0.00,,,0.74,VWS V13.00,2013-04-05 18:58:00,
2013-04-05 15:03:00,60.6,40.8,29.79,SSE,158,3.3,3.3,48,0.00,,,0.74,VWS V13.00,2013-04-05 19:03:00,
2013-04-05 15:08:00,58.6,41.5,29.78,SSE,158,5.8,5.8,53,0.00,,,0.74,VWS V13.00,2013-04-05 19:08:00,
2013-04-05 15:13:00,56.1,40.6,29.78,ENE,68,4.0,6.7,56,0.00,,,0.74,VWS V13.00,2013-04-05 19:13:00,
2013-04-05 15:18:00,54.6,41.0,29.77,SSE,158,1.5,9.1,60,0.00,,,0.74,VWS V13.00,2013-04-05 19:18:00,
2013-04-05 15:23:00,54.3,41.6,29.77,East,90,5.1,5.1,62,0.00,,,0.74,VWS V13.00,2013-04-05 19:23:00,
2013-04-05 15:28:00,54.1,41.4,29.77,East,90,2.9,5.1,62,0.00,,,0.74,VWS V13.00,2013-04-05 19:28:00,
2013-04-05 15:33:00,53.9,41.6,29.77,ESE,112,6.0,6.2,63,0.00,,,0.74,VWS V13.00,2013-04-05 19:33:00,
2013-04-05 15:38:00,53.7,41.8,29.78,ESE,112,4.9,6.2,64,0.00,,,0.74,VWS V13.00,2013-04-05 19:38:00,
2013-04-05 15:43:00,53.2,42.2,29.78,SSE,158,6.9,7.8,66,0.00,,,0.74,VWS V13.00,2013-04-05 19:43:00,
2013-04-05 15:49:00,52.7,42.5,29.77,SSE,158,4.6,7.8,68,0.00,,,0.74,VWS V13.00,2013-04-05 19:49:00,
2013-04-05 15:54:00,52.3,42.5,29.78,SSW,202,6.0,7.8,69,0.00,,,0.74,VWS V13.00,2013-04-05 19:54:00,
2013-04-05 15:59:00,52.3,42.8,29.78,SSE,158,11.8,11.8,70,0.00,,,0.74,VWS V13.00,2013-04-05 19:59:00,
2013-04-05 16:04:00,52.1,42.6,29.78,SE,135,7.3,8.5,70,0.00,,,0.74,VWS V13.00,2013-04-05 20:04:00,
2013-04-05 16:09:00,51.8,42.3,29.78,SE,135,3.1,8.5,70,0.00,,,0.74,VWS V13.00,2013-04-05 20:09:00,
2013-04-05 16:14:00,51.4,42.0,29.78,ESE,112,7.3,8.5,70,0.00,,,0.74,VWS V13.00,2013-04-05 20:14:00,
2013-04-05 16:20:00,51.0,41.9,29.78,SE,135,5.3,8.7,71,0.00,,,0.74,VWS V13.00,2013-04-05 20:20:00,
2013-04-05 16:25:00,51.0,42.3,29.78,ESE,112,5.1,5.5,72,0.00,,,0.74,VWS V13.00,2013-04-05 20:25:00,
2013-04-05 16:30:00,51.6,42.5,29.79,SSE,158,5.8,7.8,71,0.00,,,0.74,VWS V13.00,2013-04-05 20:30:00,
2013-04-05 16:35:00,51.9,42.4,29.78,ESE,112,5.1,7.8,70,0.00,,,0.74,VWS V13.00,2013-04-05 20:35:00,
2013-04-05 16:40:00,52.1,42.6,29.78,SE,135,5.5,8.9,70,0.00,,,0.74,VWS V13.00,2013-04-05 20:40:00,
2013-04-05 16:45:00,51.9,42.4,29.78,SSE,158,4.6,8.5,70,0.00,,,0.74,VWS V13.00,2013-04-05 20:45:00,
2013-04-05 16:50:00,51.6,41.8,29.79,SSE,158,4.4,10.9,69,0.00,,,0.74,VWS V13.00,2013-04-05 20:50:00,
2013-04-05 16:55:00,51.4,41.6,29.79,ESE,112,7.1,10.9,69,0.00,,,0.74,VWS V13.00,2013-04-05 20:55:00,
2013-04-05 17:00:00,51.2,41.8,29.79,SE,135,5.1,10.9,70,0.00,,,0.74,VWS V13.00,2013-04-05 21:00:00,
2013-04-05 17:05:00,51.4,42.0,29.80,ESE,112,4.6,4.6,70,0.00,,,0.74,VWS V13.00,2013-04-05 21:05:00,
2013-04-05 17:10:00,51.4,42.3,29.80,ESE,112,4.0,9.3,71,0.00,,,0.74,VWS V13.00,2013-04-05 21:10:00,
2013-04-05 17:15:00,51.4,42.3,29.79,SE,135,2.2,9.3,71,0.00,,,0.74,VWS V13.00,2013-04-05 21:15:00,
2013-04-05 17:20:00,51.4,42.3,29.79,ENE,68,8.0,9.3,71,0.00,,,0.74,VWS V13.00,2013-04-05 21:20:00,
2013-04-05 17:25:00,51.4,42.3,29.79,SSE,158,5.1,5.8,71,0.00,,,0.74,VWS V13.00,2013-04-05 21:25:00,
2013-04-05 17:30:00,51.2,42.1,29.79,SE,135,7.6,8.2,71,0.00,,,0.74,VWS V13.00,2013-04-05 21:30:00,
2013-04-05 17:35:00,51.0,42.3,29.79,East,90,8.9,8.9,72,0.00,,,0.74,VWS V13.00,2013-04-05 21:35:00,
2013-04-05 17:40:00,50.7,42.0,29.79,SE,135,3.8,8.9,72,0.00,,,0.74,VWS V13.00,2013-04-05 21:40:00,
2013-04-05 17:45:00,50.5,41.8,29.79,ESE,112,6.0,7.8,72,0.00,,,0.74,VWS V13.00,2013-04-05 21:45:00,
2013-04-05 17:51:00,50.5,41.8,29.79,ESE,112,5.8,7.8,72,0.00,,,0.74,VWS V13.00,2013-04-05 21:51:00,
2013-04-05 17:56:00,50.7,42.0,29.79,SE,135,6.2,7.8,72,0.00,,,0.74,VWS V13.00,2013-04-05 21:56:00,
2013-04-05 18:01:00,50.5,41.8,29.79,ESE,112,6.7,6.7,72,0.00,,,0.74,VWS V13.00,2013-04-05 22:01:00,
2013-04-05 18:06:00,50.5,41.8,29.80,SSE,158,4.0,6.7,72,0.00,,,0.74,VWS V13.00,2013-04-05 22:06:00,
2013-04-05 18:11:00,50.5,41.5,29.79,ESE,112,5.5,6.7,71,0.00,,,0.74,VWS V13.00,2013-04-05 22:11:00,
2013-04-05 18:16:00,50.7,41.3,29.79,South,180,0.0,6.7,70,0.00,,,0.74,VWS V13.00,2013-04-05 22:16:00,
2013-04-05 18:21:00,51.0,41.2,29.80,South,180,4.0,4.0,69,0.00,,,0.74,VWS V13.00,2013-04-05 22:21:00,
2013-04-05 18:26:00,51.4,41.2,29.80,SSE,158,4.0,5.3,68,0.00,,,0.74,VWS V13.00,2013-04-05 22:26:00,
2013-04-05 18:31:00,51.4,40.8,29.80,South,180,2.0,8.2,67,0.00,,,0.74,VWS V13.00,2013-04-05 22:31:00,
2013-04-05 18:36:00,51.6,40.6,29.81,WSW,248,0.0,8.2,66,0.00,,,0.74,VWS V13.00,2013-04-05 22:36:00,
2013-04-05 18:41:00,52.5,40.3,29.81,South,180,4.2,4.2,63,0.00,,,0.74,VWS V13.00,2013-04-05 22:41:00,
2013-04-05 18:46:00,55.0,36.2,29.82,WNW,292,7.1,7.1,49,0.00,,,0.74,VWS V13.00,2013-04-05 22:46:00,
2013-04-05 18:51:00,56.4,35.3,29.82,North,0,8.2,14.5,45,0.00,,,0.74,VWS V13.00,2013-04-05 22:51:00,
2013-04-05 18:56:00,57.3,33.8,29.82,West,270,3.1,14.5,41,0.00,,,0.74,VWS V13.00,2013-04-05 22:56:00,
2013-04-05 19:01:00,58.1,33.3,29.82,NNW,338,14.3,14.3,39,0.00,,,0.74,VWS V13.00,2013-04-05 23:01:00,
2013-04-05 19:06:00,58.2,32.7,29.83,WNW,292,11.6,14.3,38,0.00,,,0.74,VWS V13.00,2013-04-05 23:06:00,
2013-04-05 19:11:00,58.2,32.1,29.83,WNW,292,10.5,14.3,37,0.00,,,0.74,VWS V13.00,2013-04-05 23:11:00,
2013-04-05 19:16:00,58.2,31.4,29.83,NNW,338,10.5,14.3,36,0.00,,,0.74,VWS V13.00,2013-04-05 23:16:00,
2013-04-05 19:21:00,58.1,31.3,29.84,NNW,338,5.3,5.3,36,0.00,,,0.74,VWS V13.00,2013-04-05 23:21:00,
2013-04-05 19:26:00,57.9,31.1,29.84,WNW,292,4.2,15.2,36,0.00,,,0.74,VWS V13.00,2013-04-05 23:26:00,
2013-04-05 19:31:00,57.7,31.0,29.84,North,0,7.3,15.2,36,0.00,,,0.74,VWS V13.00,2013-04-05 23:31:00,
2013-04-05 19:36:00,57.5,30.8,29.85,NNW,338,6.4,15.2,36,0.00,,,0.74,VWS V13.00,2013-04-05 23:36:00,
2013-04-05 19:41:00,57.3,30.6,29.85,NW,315,4.2,5.8,36,0.00,,,0.74,VWS V13.00,2013-04-05 23:41:00,
2013-04-05 19:47:00,57.0,30.3,29.85,West,270,5.1,5.8,36,0.00,,,0.74,VWS V13.00,2013-04-05 23:47:00,
2013-04-05 19:52:00,57.0,30.3,29.85,NW,315,4.6,5.8,36,0.00,,,0.74,VWS V13.00,2013-04-05 23:52:00,
2013-04-05 19:57:00,56.8,30.1,29.85,NW,315,4.6,6.7,36,0.00,,,0.74,VWS V13.00,2013-04-05 23:57:00,
2013-04-05 20:02:00,56.4,29.8,29.85,North,0,3.8,3.8,36,0.00,,,0.74,VWS V13.00,2013-04-06 00:02:00,
2013-04-05 20:07:00,56.4,29.8,29.85,NNW,338,5.1,5.1,36,0.00,,,0.74,VWS V13.00,2013-04-06 00:07:00,
2013-04-05 20:12:00,56.3,29.7,29.85,NNW,338,4.9,5.1,36,0.00,,,0.74,VWS V13.00,2013-04-06 00:12:00,
2013-04-05 20:17:00,56.3,29.7,29.86,NNW,338,4.0,7.3,36,0.00,,,0.74,VWS V13.00,2013-04-06 00:17:00,
2013-04-05 20:22:00,56.3,29.0,29.86,NNW,338,7.1,7.1,35,0.00,,,0.74,VWS V13.00,2013-04-06 00:22:00,
2013-04-05 20:27:00,56.1,28.8,29.87,WNW,292,6.9,7.1,35,0.00,,,0.74,VWS V13.00,2013-04-06 00:27:00,
2013-04-05 20:32:00,56.1,28.8,29.87,North,0,8.0,8.0,35,0.00,,,0.74,VWS V13.00,2013-04-06 00:32:00,
2013-04-05 20:37:00,56.1,28.8,29.87,WNW,292,1.7,8.0,35,0.00,,,0.74,VWS V13.00,2013-04-06 00:37:00,
2013-04-05 20:42:00,55.9,28.7,29.88,NNW,338,4.4,5.3,35,0.00,,,0.74,VWS V13.00,2013-04-06 00:42:00,
2013-04-05 20:47:00,55.9,28.7,29.88,WSW,248,0.0,5.5,35,0.00,,,0.74,VWS V13.00,2013-04-06 00:47:00,
2013-04-05 20:52:00,55.9,28.7,29.89,WNW,292,0.0,5.5,35,0.00,,,0.74,VWS V13.00,2013-04-06 00:52:00,
2013-04-05 20:57:00,55.7,29.2,29.89,NNW,338,3.1,5.5,36,0.00,,,0.74,VWS V13.00,2013-04-06 00:57:00,
2013-04-05 21:02:00,55.5,29.0,29.89,NNW,338,4.0,4.0,36,0.00,,,0.74,VWS V13.00,2013-04-06 01:02:00,
2013-04-05 21:07:00,55.4,28.9,29.89,NNW,338,5.3,5.3,36,0.00,,,0.74,VWS V13.00,2013-04-06 01:07:00,
2013-04-05 21:12:00,55.2,28.7,29.90,North,0,0.0,5.3,36,0.00,,,0.74,VWS V13.00,2013-04-06 01:12:00,
2013-04-05 21:17:00,55.0,28.6,29.90,NW,315,0.0,5.3,36,0.00,,,0.74,VWS V13.00,2013-04-06 01:17:00,
2013-04-05 21:22:00,54.8,28.4,29.90,West,270,1.1,1.1,36,0.00,,,0.74,VWS V13.00,2013-04-06 01:22:00,
2013-04-05 21:27:00,54.8,28.4,29.91,West,270,0.0,2.0,36,0.00,,,0.74,VWS V13.00,2013-04-06 01:27:00,
2013-04-05 21:32:00,54.6,28.2,29.91,NNW,338,5.3,5.3,36,0.00,,,0.74,VWS V13.00,2013-04-06 01:32:00,
2013-04-05 21:37:00,54.5,28.1,29.92,NW,315,0.0,5.3,36,0.00,,,0.74,VWS V13.00,2013-04-06 01:37:00,
2013-04-05 21:42:00,54.3,27.9,29.92,WNW,292,0.0,0.0,36,0.00,,,0.74,VWS V13.00,2013-04-06 01:42:00,
2013-04-05 21:48:00,54.1,28.4,29.92,North,0,3.5,3.5,37,0.00,,,0.74,VWS V13.00,2013-04-06 01:48:00,
2013-04-05 21:53:00,53.9,28.2,29.92,NW,315,0.0,3.5,37,0.00,,,0.74,VWS V13.00,2013-04-06 01:53:00,
2013-04-05 21:58:00,53.9,28.2,29.93,NNW,338,1.1,3.5,37,0.00,,,0.74,VWS V13.00,2013-04-06 01:58:00,
2013-04-05 22:03:00,53.7,28.1,29.93,North,0,0.0,3.5,37,0.00,,,0.74,VWS V13.00,2013-04-06 02:03:00,
2013-04-05 22:08:00,53.6,28.6,29.93,NNW,338,3.3,4.9,38,0.00,,,0.74,VWS V13.00,2013-04-06 02:08:00,
2013-04-05 22:13:00,53.4,28.5,29.93,NNW,338,3.8,4.9,38,0.00,,,0.74,VWS V13.00,2013-04-06 02:13:00,
2013-04-05 22:18:00,52.8,28.5,29.93,NW,315,3.5,6.2,39,0.00,,,0.74,VWS V13.00,2013-04-06 02:18:00,
2013-04-05 22:23:00,52.7,29.1,29.94,North,0,3.5,3.8,40,0.00,,,0.74,VWS V13.00,2013-04-06 02:23:00,
2013-04-05 22:28:00,52.5,28.9,29.93,North,0,3.5,3.8,40,0.00,,,0.74,VWS V13.00,2013-04-06 02:28:00,
2013-04-05 22:33:00,52.3,28.7,29.93,West,270,0.0,3.8,40,0.00,,,0.74,VWS V13.00,2013-04-06 02:33:00,
2013-04-05 22:38:00,52.5,28.3,29.93,NW,315,2.4,8.2,39,0.00,,,0.74,VWS V13.00,2013-04-06 02:38:00,
2013-04-05 22:43:00,52.5,27.6,29.94,NW,315,6.9,6.9,38,0.00,,,0.74,VWS V13.00,2013-04-06 02:43:00,
2013-04-05 22:48:00,52.7,27.8,29.94,NNW,338,9.6,10.5,38,0.00,,,0.74,VWS V13.00,2013-04-06 02:48:00,
2013-04-05 22:53:00,52.8,27.3,29.95,North,0,8.2,10.5,37,0.00,,,0.74,VWS V13.00,2013-04-06 02:53:00,
2013-04-05 22:58:00,52.8,26.6,29.94,North,0,8.5,10.5,36,0.00,,,0.74,VWS V13.00,2013-04-06 02:58:00,
2013-04-05 23:03:00,52.8,27.3,29.95,NW,315,12.7,12.7,37,0.00,,,0.74,VWS V13.00,2013-04-06 03:03:00,
2013-04-05 23:08:00,52.7,27.2,29.95,NW,315,13.4,13.4,37,0.00,,,0.74,VWS V13.00,2013-04-06 03:08:00,
2013-04-05 23:13:00,52.3,27.5,29.95,WNW,292,7.1,13.4,38,0.00,,,0.74,VWS V13.00,2013-04-06 03:13:00,
2013-04-05 23:18:00,51.9,27.7,29.96,NNE,22,11.8,13.4,39,0.00,,,0.74,VWS V13.00,2013-04-06 03:18:00,
2013-04-05 23:23:00,51.6,27.5,29.96,NW,315,4.6,13.1,39,0.00,,,0.74,VWS V13.00,2013-04-06 03:23:00,
2013-04-05 23:28:00,51.4,27.3,29.97,North,0,11.6,13.1,39,0.00,,,0.74,VWS V13.00,2013-04-06 03:28:00,
2013-04-05 23:33:00,51.0,27.5,29.97,NNW,338,11.8,13.1,40,0.00,,,0.74,VWS V13.00,2013-04-06 03:33:00,
2013-04-05 23:38:00,51.0,27.5,29.97,NW,315,11.1,13.1,40,0.00,,,0.74,VWS V13.00,2013-04-06 03:38:00,
2013-04-05 23:43:00,50.9,28.1,29.97,NNW,338,12.9,12.9,41,0.00,,,0.74,VWS V13.00,2013-04-06 03:43:00,
2013-04-05 23:49:00,50.7,27.9,29.98,NNW,338,18.3,18.3,41,0.00,,,0.74,VWS V13.00,2013-04-06 03:49:00,
2013-04-05 23:54:00,50.5,27.7,29.98,North,0,14.3,18.3,41,0.00,,,0.74,VWS V13.00,2013-04-06 03:54:00,
2013-04-05 23:59:00,50.1,28.5,29.98,North,0,10.7,18.3,43,0.00,,,0.74,VWS V13.00,2013-04-06 03:59:00,